Flintstone, Maryland
Current Conditions -  °F | °C
As of 7:16 AM on Sunday 25 Jan 2015 (Local Time) from KCBE Reporting Station
Overcast Overcast  
Wind Chill: 34°   Ceiling: 4200
Heat Index: 37°   Visibility: 10mi
Dew Point: 32°   Wind: 5mph
Humidity: 81%   Direction: 170°S
Pressure: 29.81"   Gusts: NA
Location:  39.7°N, 78.57°W
Report Text: KCBE 251216Z AUTO 17004KT 10SM SCT031 OVC042 03/00 A2981 RMK AO1
Loading
Personal Weather Stations






























Interactive Weather Map New forecast layout! Learn more

10-Day Weather Forecast

Advertisements
Track Severe Weather on mobile